createdAt,value
2023-02-08T05:26:59.010Z,100222.06
2023-02-08T05:32:00.673Z,100221.00
2023-02-08T05:37:02.448Z,100225.25
2023-02-08T05:42:04.126Z,100213.16
2023-02-08T05:47:05.856Z,100227.88
2023-02-08T05:52:07.511Z,100214.03
2023-02-08T05:57:09.376Z,100205.25
2023-02-08T06:02:11.078Z,100201.06
2023-02-08T06:07:12.780Z,100201.16
2023-02-08T06:12:14.493Z,100179.41
2023-02-08T06:17:16.184Z,100230.38
2023-02-08T06:22:17.859Z,100227.88
2023-02-08T06:27:19.529Z,100219.22
2023-02-08T06:32:21.557Z,100210.44
2023-02-08T06:37:23.674Z,100224.50
2023-02-08T06:42:26.739Z,100218.56
2023-02-08T06:47:28.535Z,100214.31
2023-02-08T06:52:30.355Z,100205.63
2023-02-08T06:57:32.300Z,100213.72
2023-02-08T07:02:34.091Z,100208.56
2023-02-08T07:07:35.735Z,100201.66
2023-02-08T07:12:37.750Z,100210.34
2023-02-08T07:17:39.699Z,100200.78
2023-02-08T07:22:42.202Z,100206.94
2023-02-08T07:27:43.966Z,100199.13
2023-02-08T07:32:45.568Z,100221.91
2023-02-08T07:37:48.655Z,100206.19
2023-02-08T07:42:50.437Z,100204.41
2023-02-08T07:47:53.870Z,100220.28
2023-02-08T07:52:55.575Z,100210.59
2023-02-08T07:57:57.453Z,100237.84
2023-02-08T08:02:59.520Z,100225.69
2023-02-08T08:08:01.116Z,100240.53
2023-02-08T08:13:02.816Z,100238.81
2023-02-08T08:18:04.496Z,100239.72
2023-02-08T08:23:06.453Z,100236.25
2023-02-08T08:28:08.781Z,100225.78
2023-02-08T08:33:11.300Z,100218.75
2023-02-08T08:38:13.834Z,100208.28
2023-02-08T08:43:16.146Z,100225.81
2023-02-08T08:48:18.094Z,100225.81
2023-02-08T08:53:22.966Z,100218.81
2023-02-08T08:58:24.653Z,100224.97
2023-02-08T09:03:27.594Z,100200.47
2023-02-08T09:08:29.649Z,100220.59
2023-02-08T09:13:31.416Z,100213.66
2023-02-08T09:18:33.128Z,100193.53
2023-02-08T09:23:34.929Z,100187.38
2023-02-08T09:28:37.125Z,100199.66
2023-02-08T09:33:39.151Z,100226.78
2023-02-08T09:38:41.829Z,100225.91
2023-02-08T09:44:05.251Z,100225.91
2023-02-08T09:49:14.323Z,100225.91
2023-02-08T09:54:24.307Z,100208.38
2023-02-08T09:59:32.341Z,100224.13
2023-02-08T10:05:01.796Z,100213.63
2023-02-08T10:10:06.757Z,100174.28
2023-02-08T10:15:33.614Z,100196.09
2023-02-08T10:21:00.042Z,100203.00
2023-02-08T10:26:19.481Z,100196.09
2023-02-08T10:32:02.751Z,100194.25
2023-02-08T10:37:12.914Z,100177.63
2023-02-08T10:42:20.412Z,100177.50
2023-02-08T10:47:28.641Z,100173.81
2023-02-08T10:52:31.558Z,100166.78
2023-02-08T10:57:35.925Z,100164.09
2023-02-08T11:02:42.572Z,100153.44
2023-02-08T11:07:44.302Z,100152.69
2023-02-08T11:13:05.727Z,100140.41
2023-02-08T11:18:15.545Z,100134.06
2023-02-08T11:23:32.360Z,100134.19
2023-02-08T11:28:34.087Z,100125.03
2023-02-08T11:33:36.961Z,100121.56
2023-02-08T11:38:42.564Z,100115.50
2023-02-08T11:44:09.732Z,100109.72
2023-02-08T11:49:23.628Z,100104.63
2023-02-08T11:54:41.468Z,100094.28
2023-02-08T11:59:43.206Z,100088.91
2023-02-08T12:04:45.101Z,100073.06
2023-02-08T12:10:03.699Z,100074.56
2023-02-08T12:15:45.018Z,100048.31
2023-02-08T12:21:12.237Z,100030.47
2023-02-08T12:26:35.917Z,100042.84
2023-02-08T12:31:44.765Z,100041.91
2023-02-08T12:37:34.027Z,100032.72
2023-02-08T12:43:14.839Z,100033.53
2023-02-08T12:48:46.641Z,100017.88
2023-02-08T12:53:59.877Z,100016.34
2023-02-08T12:59:13.087Z,100008.84
2023-02-08T13:04:22.428Z,100006.28
2023-02-08T13:09:35.228Z,100008.59
2023-02-08T13:14:49.271Z,100007.63
2023-02-08T13:20:07.569Z,100002.44
2023-02-08T13:25:36.794Z,99997.53
2023-02-08T13:30:40.295Z,99982.84
2023-02-08T13:35:42.551Z,99973.31
2023-02-08T13:40:45.697Z,99969.91
2023-02-08T13:45:53.096Z,99982.94
2023-02-08T13:50:57.015Z,99972.19
2023-02-08T13:56:01.275Z,99971.22
2023-02-08T14:01:08.899Z,99965.13
2023-02-08T14:06:24.099Z,99951.81
2023-02-08T14:11:45.472Z,99955.66
2023-02-08T14:17:09.862Z,99965.78
2023-02-08T14:22:11.593Z,99966.78
2023-02-08T14:27:28.604Z,99974.84
2023-02-08T14:32:32.832Z,99954.66
2023-02-08T14:37:36.813Z,99943.31
2023-02-08T14:43:13.245Z,99937.38
2023-02-08T14:48:31.841Z,99937.38
2023-02-08T14:53:56.091Z,99932.13
2023-02-08T14:59:03.054Z,99939.03
2023-02-08T15:04:05.134Z,99916.38
2023-02-08T15:09:22.980Z,99934.88
2023-02-08T15:14:25.285Z,99926.31
2023-02-08T15:19:38.513Z,99935.19
2023-02-08T15:24:49.838Z,99929.13
2023-02-08T15:29:52.187Z,99932.69
2023-02-08T15:35:02.668Z,99939.81
2023-02-08T15:40:05.370Z,99933.69
2023-02-08T15:45:24.512Z,99933.00
2023-02-08T15:50:29.318Z,99941.06
2023-02-08T15:55:36.210Z,99932.41
2023-02-08T16:00:38.582Z,99944.69
2023-02-08T16:05:40.298Z,99941.34
2023-02-08T16:10:48.973Z,99959.78
2023-02-08T16:16:03.799Z,99947.59
2023-02-08T16:21:25.163Z,99961.66
2023-02-08T16:26:37.370Z,99958.19
2023-02-08T16:31:46.730Z,99963.59
2023-02-08T16:36:51.304Z,99958.47
2023-02-08T16:41:54.504Z,99966.38
2023-02-08T16:47:00.165Z,99955.88
2023-02-08T16:52:02.409Z,99966.41
2023-02-08T16:57:05.296Z,99959.47
2023-02-08T17:02:12.071Z,99942.94
2023-02-08T17:07:18.620Z,99953.44
2023-02-08T17:12:22.772Z,99944.72
2023-02-08T17:17:26.144Z,99947.41
2023-02-08T17:22:28.878Z,99951.84
2023-02-08T17:27:30.550Z,99952.78
2023-02-08T17:32:32.236Z,99943.22
2023-02-08T17:37:34.167Z,99956.31
2023-02-08T17:42:35.859Z,99954.63
2023-02-08T17:47:41.710Z,99960.84
2023-02-08T17:52:43.356Z,99960.88
2023-02-08T17:57:45.889Z,99964.38
2023-02-08T18:02:50.152Z,99959.16
2023-02-08T18:07:56.975Z,99963.50
2023-02-08T18:12:59.925Z,99949.44
2023-02-08T18:18:01.683Z,99941.75
2023-02-08T18:23:04.668Z,99955.72
2023-02-08T18:28:07.314Z,99950.53
2023-02-08T18:33:12.423Z,99939.31
2023-02-08T18:38:14.097Z,99948.94
2023-02-08T18:43:17.484Z,99952.38
2023-02-08T18:48:19.231Z,99929.78
2023-02-08T18:53:20.919Z,99945.44
2023-02-08T18:58:23.281Z,99955.09
2023-02-08T19:03:24.959Z,99952.53
2023-02-08T19:08:26.669Z,99943.84
2023-02-08T19:13:28.374Z,99948.19
2023-02-08T19:18:30.039Z,99954.34
2023-02-08T19:23:31.908Z,99943.88
2023-02-08T19:28:34.563Z,99937.75
2023-02-08T19:33:37.737Z,99905.59
2023-02-08T19:38:40.137Z,99944.88
2023-02-08T19:43:42.010Z,99957.97
2023-02-08T19:48:43.682Z,99951.00
2023-02-08T19:53:46.204Z,99954.50
2023-02-08T19:58:48.652Z,99964.97
2023-02-08T20:03:50.767Z,99958.03
2023-02-08T20:08:52.862Z,99957.19
2023-02-08T20:13:56.621Z,99922.22
2023-02-08T20:18:58.531Z,99951.94
2023-02-08T20:24:01.307Z,99937.16
2023-02-08T20:29:03.374Z,99938.88
2023-02-08T20:34:07.494Z,99941.47
2023-02-08T20:39:14.509Z,99943.28
2023-02-08T20:44:18.399Z,99951.16
2023-02-08T20:49:24.246Z,99935.44
2023-02-08T20:54:25.960Z,99944.22
